sensor_id;sensor_type;location;lat;lon;timestamp;pressure;altitude;pressure_sealevel;temperature;humidity
71621;BME280;59471;42.254;23.102;2023-09-30T00:00:46;96275.97;;;13.79;67.13
71621;BME280;59471;42.254;23.102;2023-09-30T00:03:12;96268.44;;;13.76;67.18
71621;BME280;59471;42.254;23.102;2023-09-30T00:05:38;96267.75;;;13.88;67.04
71621;BME280;59471;42.254;23.102;2023-09-30T00:08:04;96263.94;;;13.91;66.56
71621;BME280;59471;42.254;23.102;2023-09-30T00:10:30;96270.72;;;14.00;66.15
71621;BME280;59471;42.254;23.102;2023-09-30T00:12:57;96262.16;;;13.77;67.27
71621;BME280;59471;42.254;23.102;2023-09-30T00:15:24;96263.13;;;13.54;67.74
71621;BME280;59471;42.254;23.102;2023-09-30T00:17:50;96265.22;;;13.59;67.69
71621;BME280;59471;42.254;23.102;2023-09-30T00:20:15;96267.78;;;13.74;67.21
71621;BME280;59471;42.254;23.102;2023-09-30T00:22:41;96267.72;;;13.67;67.59
71621;BME280;59471;42.254;23.102;2023-09-30T00:25:07;96254.13;;;13.63;67.46
71621;BME280;59471;42.254;23.102;2023-09-30T00:27:33;96259.13;;;13.58;67.55
71621;BME280;59471;42.254;23.102;2023-09-30T00:29:58;96259.97;;;13.59;67.59
71621;BME280;59471;42.254;23.102;2023-09-30T00:32:24;96259.50;;;13.55;67.84
71621;BME280;59471;42.254;23.102;2023-09-30T00:34:49;96260.41;;;13.62;67.41
71621;BME280;59471;42.254;23.102;2023-09-30T00:37:17;96260.13;;;13.57;67.63
71621;BME280;59471;42.254;23.102;2023-09-30T00:39:43;96257.63;;;13.71;67.99
71621;BME280;59471;42.254;23.102;2023-09-30T00:42:10;96248.00;;;13.78;67.41
71621;BME280;59471;42.254;23.102;2023-09-30T00:44:36;96268.69;;;13.81;67.12
71621;BME280;59471;42.254;23.102;2023-09-30T00:47:01;96264.19;;;13.75;67.30
71621;BME280;59471;42.254;23.102;2023-09-30T00:49:28;96264.00;;;13.61;67.24
71621;BME280;59471;42.254;23.102;2023-09-30T00:51:54;96263.50;;;13.51;67.99
71621;BME280;59471;42.254;23.102;2023-09-30T00:54:21;96257.09;;;13.39;67.84
71621;BME280;59471;42.254;23.102;2023-09-30T00:56:50;96265.59;;;13.56;67.71
71621;BME280;59471;42.254;23.102;2023-09-30T00:59:16;96263.78;;;13.41;68.11
71621;BME280;59471;42.254;23.102;2023-09-30T01:01:43;96264.81;;;13.26;68.37
71621;BME280;59471;42.254;23.102;2023-09-30T01:04:14;96266.25;;;13.13;68.79
71621;BME280;59471;42.254;23.102;2023-09-30T01:06:40;96263.66;;;13.28;68.52
71621;BME280;59471;42.254;23.102;2023-09-30T01:09:07;96269.06;;;13.12;68.80
71621;BME280;59471;42.254;23.102;2023-09-30T01:11:34;96273.69;;;13.39;68.27
71621;BME280;59471;42.254;23.102;2023-09-30T01:13:59;96272.25;;;13.37;67.94
71621;BME280;59471;42.254;23.102;2023-09-30T01:16:25;96271.69;;;13.27;68.45
71621;BME280;59471;42.254;23.102;2023-09-30T01:18:50;96269.78;;;13.35;68.18
71621;BME280;59471;42.254;23.102;2023-09-30T01:21:17;96270.41;;;13.22;68.44
71621;BME280;59471;42.254;23.102;2023-09-30T01:23:43;96272.34;;;12.99;69.53
71621;BME280;59471;42.254;23.102;2023-09-30T01:26:12;96271.69;;;12.97;69.23
71621;BME280;59471;42.254;23.102;2023-09-30T01:28:39;96280.50;;;13.04;69.51
71621;BME280;59471;42.254;23.102;2023-09-30T01:31:05;96278.03;;;12.88;69.92
71621;BME280;59471;42.254;23.102;2023-09-30T01:33:31;96275.41;;;12.73;70.60
71621;BME280;59471;42.254;23.102;2023-09-30T01:35:58;96274.69;;;12.94;69.49
71621;BME280;59471;42.254;23.102;2023-09-30T01:38:25;96272.69;;;12.81;69.67
71621;BME280;59471;42.254;23.102;2023-09-30T01:40:51;96268.78;;;12.92;69.92
71621;BME280;59471;42.254;23.102;2023-09-30T01:43:16;96277.41;;;12.86;69.75
71621;BME280;59471;42.254;23.102;2023-09-30T01:45:42;96277.16;;;12.81;70.32
71621;BME280;59471;42.254;23.102;2023-09-30T01:48:10;96272.44;;;12.91;69.78
71621;BME280;59471;42.254;23.102;2023-09-30T01:50:40;96266.44;;;12.82;69.55
71621;BME280;59471;42.254;23.102;2023-09-30T01:53:06;96275.84;;;12.62;70.38
71621;BME280;59471;42.254;23.102;2023-09-30T01:55:33;96270.41;;;12.63;71.03
71621;BME280;59471;42.254;23.102;2023-09-30T01:57:59;96263.44;;;12.56;71.30
71621;BME280;59471;42.254;23.102;2023-09-30T02:00:24;96271.88;;;12.81;69.94
71621;BME280;59471;42.254;23.102;2023-09-30T02:02:50;96269.16;;;12.74;70.61
71621;BME280;59471;42.254;23.102;2023-09-30T02:05:16;96270.44;;;12.93;69.69
71621;BME280;59471;42.254;23.102;2023-09-30T02:07:41;96273.25;;;12.91;69.91
71621;BME280;59471;42.254;23.102;2023-09-30T02:10:07;96269.69;;;12.69;70.45
71621;BME280;59471;42.254;23.102;2023-09-30T02:12:33;96259.72;;;12.80;70.44
71621;BME280;59471;42.254;23.102;2023-09-30T02:14:59;96252.94;;;12.70;70.46
71621;BME280;59471;42.254;23.102;2023-09-30T02:17:24;96259.91;;;12.63;70.52
71621;BME280;59471;42.254;23.102;2023-09-30T02:19:50;96264.97;;;12.50;71.29
71621;BME280;59471;42.254;23.102;2023-09-30T02:22:15;96259.44;;;12.60;71.08
71621;BME280;59471;42.254;23.102;2023-09-30T02:24:41;96258.91;;;12.49;71.52
71621;BME280;59471;42.254;23.102;2023-09-30T02:27:07;96259.81;;;12.71;70.43
71621;BME280;59471;42.254;23.102;2023-09-30T02:29:33;96261.19;;;12.67;70.82
71621;BME280;59471;42.254;23.102;2023-09-30T02:31:58;96256.38;;;12.71;70.73
71621;BME280;59471;42.254;23.102;2023-09-30T02:34:24;96266.22;;;12.54;70.81
71621;BME280;59471;42.254;23.102;2023-09-30T02:36:50;96263.25;;;12.57;71.08
71621;BME280;59471;42.254;23.102;2023-09-30T02:39:15;96266.09;;;12.70;70.52
71621;BME280;59471;42.254;23.102;2023-09-30T02:41:42;96271.31;;;12.56;70.85
71621;BME280;59471;42.254;23.102;2023-09-30T02:44:08;96270.56;;;12.47;70.95
71621;BME280;59471;42.254;23.102;2023-09-30T02:46:33;96272.88;;;12.65;71.17
71621;BME280;59471;42.254;23.102;2023-09-30T02:49:01;96262.88;;;12.60;71.04
71621;BME280;59471;42.254;23.102;2023-09-30T02:51:27;96265.88;;;12.57;71.08
71621;BME280;59471;42.254;23.102;2023-09-30T02:53:53;96270.38;;;12.34;71.71
71621;BME280;59471;42.254;23.102;2023-09-30T02:56:19;96269.66;;;12.40;72.33
71621;BME280;59471;42.254;23.102;2023-09-30T02:58:45;96268.59;;;12.26;72.72
71621;BME280;59471;42.254;23.102;2023-09-30T03:01:15;96272.00;;;12.35;72.00
71621;BME280;59471;42.254;23.102;2023-09-30T03:03:42;96269.44;;;12.26;72.36
71621;BME280;59471;42.254;23.102;2023-09-30T03:06:11;96266.16;;;12.24;72.45
71621;BME280;59471;42.254;23.102;2023-09-30T03:08:37;96262.31;;;12.50;71.78
71621;BME280;59471;42.254;23.102;2023-09-30T03:11:03;96264.22;;;12.41;72.21
71621;BME280;59471;42.254;23.102;2023-09-30T03:13:30;96264.69;;;12.60;71.74
71621;BME280;59471;42.254;23.102;2023-09-30T03:15:56;96265.44;;;12.68;71.56
71621;BME280;59471;42.254;23.102;2023-09-30T03:18:26;96273.03;;;12.63;71.12
71621;BME280;59471;42.254;23.102;2023-09-30T03:20:58;96266.94;;;12.33;72.19
71621;BME280;59471;42.254;23.102;2023-09-30T03:23:34;96270.72;;;12.31;71.82
71621;BME280;59471;42.254;23.102;2023-09-30T03:26:00;96264.75;;;12.37;71.88
71621;BME280;59471;42.254;23.102;2023-09-30T03:28:26;96270.91;;;12.44;71.62
71621;BME280;59471;42.254;23.102;2023-09-30T03:30:53;96263.94;;;12.13;73.23
71621;BME280;59471;42.254;23.102;2023-09-30T03:33:18;96264.47;;;12.32;71.53
71621;BME280;59471;42.254;23.102;2023-09-30T03:35:44;96261.38;;;12.28;72.38
71621;BME280;59471;42.254;23.102;2023-09-30T03:38:10;96262.19;;;12.28;71.96
71621;BME280;59471;42.254;23.102;2023-09-30T03:40:38;96269.81;;;12.23;72.65
71621;BME280;59471;42.254;23.102;2023-09-30T03:43:13;96271.56;;;12.08;72.75
71621;BME280;59471;42.254;23.102;2023-09-30T03:45:40;96267.09;;;12.32;72.73
71621;BME280;59471;42.254;23.102;2023-09-30T03:48:06;96268.00;;;12.39;72.60
71621;BME280;59471;42.254;23.102;2023-09-30T03:50:33;96271.06;;;12.27;72.65
71621;BME280;59471;42.254;23.102;2023-09-30T03:53:02;96260.66;;;12.34;72.18
71621;BME280;59471;42.254;23.102;2023-09-30T03:55:30;96249.25;;;12.27;72.14
71621;BME280;59471;42.254;23.102;2023-09-30T03:57:57;96259.91;;;12.25;72.30
71621;BME280;59471;42.254;23.102;2023-09-30T04:00:23;96265.91;;;12.34;72.15
71621;BME280;59471;42.254;23.102;2023-09-30T04:02:49;96265.72;;;12.21;72.85
71621;BME280;59471;42.254;23.102;2023-09-30T04:05:19;96255.31;;;12.27;72.25
71621;BME280;59471;42.254;23.102;2023-09-30T04:07:49;96270.84;;;12.14;73.19
71621;BME280;59471;42.254;23.102;2023-09-30T04:10:14;96254.41;;;12.20;73.16
71621;BME280;59471;42.254;23.102;2023-09-30T04:12:40;96262.53;;;12.25;73.30
71621;BME280;59471;42.254;23.102;2023-09-30T04:15:06;96264.19;;;12.26;72.69
71621;BME280;59471;42.254;23.102;2023-09-30T04:17:35;96255.66;;;12.24;73.33
71621;BME280;59471;42.254;23.102;2023-09-30T04:20:02;96265.66;;;12.06;74.00
71621;BME280;59471;42.254;23.102;2023-09-30T04:22:30;96262.97;;;12.14;72.98
71621;BME280;59471;42.254;23.102;2023-09-30T04:24:57;96260.91;;;12.24;73.15
71621;BME280;59471;42.254;23.102;2023-09-30T04:27:23;96272.78;;;12.20;72.87
71621;BME280;59471;42.254;23.102;2023-09-30T04:29:49;96270.16;;;12.20;72.96
71621;BME280;59471;42.254;23.102;2023-09-30T04:32:15;96269.09;;;12.29;72.77
71621;BME280;59471;42.254;23.102;2023-09-30T04:34:41;96276.31;;;12.27;73.22
71621;BME280;59471;42.254;23.102;2023-09-30T04:37:06;96273.38;;;12.08;73.37
71621;BME280;59471;42.254;23.102;2023-09-30T04:39:34;96274.19;;;12.08;74.10
71621;BME280;59471;42.254;23.102;2023-09-30T04:42:00;96279.47;;;12.00;74.23
71621;BME280;59471;42.254;23.102;2023-09-30T04:44:26;96286.53;;;11.99;73.73
71621;BME280;59471;42.254;23.102;2023-09-30T04:46:55;96281.22;;;11.85;74.24
71621;BME280;59471;42.254;23.102;2023-09-30T04:49:21;96286.56;;;11.68;75.80
71621;BME280;59471;42.254;23.102;2023-09-30T04:51:48;96285.50;;;11.77;75.71
71621;BME280;59471;42.254;23.102;2023-09-30T04:54:14;96291.72;;;11.85;74.61
71621;BME280;59471;42.254;23.102;2023-09-30T04:56:40;96292.56;;;12.08;74.08
71621;BME280;59471;42.254;23.102;2023-09-30T04:59:05;96299.25;;;11.88;74.50
71621;BME280;59471;42.254;23.102;2023-09-30T05:01:31;96287.44;;;11.83;74.62
71621;BME280;59471;42.254;23.102;2023-09-30T05:03:56;96295.81;;;12.10;74.73
71621;BME280;59471;42.254;23.102;2023-09-30T05:06:22;96298.31;;;12.03;74.36
71621;BME280;59471;42.254;23.102;2023-09-30T05:08:48;96297.84;;;12.00;74.22
71621;BME280;59471;42.254;23.102;2023-09-30T05:11:14;96309.59;;;12.12;74.45
71621;BME280;59471;42.254;23.102;2023-09-30T05:13:40;96307.63;;;12.14;73.95
71621;BME280;59471;42.254;23.102;2023-09-30T05:16:05;96314.09;;;12.26;73.39
71621;BME280;59471;42.254;23.102;2023-09-30T05:18:34;96316.97;;;12.32;73.81
71621;BME280;59471;42.254;23.102;2023-09-30T05:20:59;96307.63;;;12.14;74.10
71621;BME280;59471;42.254;23.102;2023-09-30T05:23:26;96309.66;;;12.42;74.19
71621;BME280;59471;42.254;23.102;2023-09-30T05:25:51;96315.53;;;12.52;73.53
71621;BME280;59471;42.254;23.102;2023-09-30T05:28:20;96317.00;;;12.69;71.19
71621;BME280;59471;42.254;23.102;2023-09-30T05:30:46;96312.75;;;12.68;71.53
71621;BME280;59471;42.254;23.102;2023-09-30T05:33:11;96310.81;;;12.62;71.57
71621;BME280;59471;42.254;23.102;2023-09-30T05:35:42;96308.69;;;12.81;72.17
71621;BME280;59471;42.254;23.102;2023-09-30T05:38:08;96318.13;;;12.90;73.05
71621;BME280;59471;42.254;23.102;2023-09-30T05:40:34;96311.84;;;12.76;72.60
71621;BME280;59471;42.254;23.102;2023-09-30T05:42:59;96321.34;;;12.62;73.18
71621;BME280;59471;42.254;23.102;2023-09-30T05:45:26;96328.28;;;12.93;71.23
71621;BME280;59471;42.254;23.102;2023-09-30T05:47:53;96331.34;;;13.11;70.86
71621;BME280;59471;42.254;23.102;2023-09-30T05:50:21;96327.63;;;13.20;70.23
71621;BME280;59471;42.254;23.102;2023-09-30T05:52:53;96333.13;;;13.34;69.46
71621;BME280;59471;42.254;23.102;2023-09-30T05:55:20;96332.19;;;13.27;70.09
71621;BME280;59471;42.254;23.102;2023-09-30T05:57:50;96333.16;;;13.11;70.59
71621;BME280;59471;42.254;23.102;2023-09-30T06:00:17;96332.47;;;13.02;71.22
71621;BME280;59471;42.254;23.102;2023-09-30T06:02:48;96331.59;;;13.25;70.86
71621;BME280;59471;42.254;23.102;2023-09-30T06:05:15;96329.00;;;13.46;70.17
71621;BME280;59471;42.254;23.102;2023-09-30T06:07:48;96340.53;;;13.60;69.99
71621;BME280;59471;42.254;23.102;2023-09-30T06:10:16;96331.41;;;13.77;69.85
71621;BME280;59471;42.254;23.102;2023-09-30T06:12:46;96338.16;;;14.01;69.40
71621;BME280;59471;42.254;23.102;2023-09-30T06:15:16;96325.69;;;14.10;68.90
71621;BME280;59471;42.254;23.102;2023-09-30T06:17:49;96329.91;;;14.26;68.08
71621;BME280;59471;42.254;23.102;2023-09-30T06:20:15;96329.91;;;14.26;67.39
71621;BME280;59471;42.254;23.102;2023-09-30T06:22:43;96328.34;;;14.31;67.37
71621;BME280;59471;42.254;23.102;2023-09-30T06:25:14;96325.63;;;14.46;67.16
71621;BME280;59471;42.254;23.102;2023-09-30T06:27:45;96328.34;;;14.53;66.85
71621;BME280;59471;42.254;23.102;2023-09-30T06:30:12;96336.53;;;14.86;65.82
71621;BME280;59471;42.254;23.102;2023-09-30T06:32:42;96337.84;;;15.03;65.03
71621;BME280;59471;42.254;23.102;2023-09-30T06:35:08;96332.28;;;15.20;64.09
71621;BME280;59471;42.254;23.102;2023-09-30T06:37:38;96336.81;;;15.33;63.57
71621;BME280;59471;42.254;23.102;2023-09-30T06:40:08;96330.84;;;15.59;63.30
71621;BME280;59471;42.254;23.102;2023-09-30T06:42:35;96324.13;;;15.56;61.65
71621;BME280;59471;42.254;23.102;2023-09-30T06:45:02;96325.66;;;15.72;61.50
71621;BME280;59471;42.254;23.102;2023-09-30T06:47:32;96321.44;;;15.91;60.39
71621;BME280;59471;42.254;23.102;2023-09-30T06:50:02;96320.63;;;15.90;60.19
71621;BME280;59471;42.254;23.102;2023-09-30T06:52:40;96317.22;;;16.10;60.68
71621;BME280;59471;42.254;23.102;2023-09-30T06:55:07;96323.56;;;16.35;60.34
71621;BME280;59471;42.254;23.102;2023-09-30T06:57:37;96326.63;;;16.39;60.61
71621;BME280;59471;42.254;23.102;2023-09-30T07:00:10;96329.50;;;16.51;60.49
71621;BME280;59471;42.254;23.102;2023-09-30T07:02:37;96322.97;;;16.73;59.65
71621;BME280;59471;42.254;23.102;2023-09-30T07:05:11;96317.72;;;17.00;58.08
71621;BME280;59471;42.254;23.102;2023-09-30T07:07:39;96329.09;;;17.07;58.32
71621;BME280;59471;42.254;23.102;2023-09-30T07:10:06;96322.59;;;17.09;58.34
71621;BME280;59471;42.254;23.102;2023-09-30T07:12:33;96334.34;;;17.20;57.61
71621;BME280;59471;42.254;23.102;2023-09-30T07:15:01;96336.16;;;17.40;58.34
71621;BME280;59471;42.254;23.102;2023-09-30T07:17:28;96338.34;;;17.56;57.33
71621;BME280;59471;42.254;23.102;2023-09-30T07:19:53;96334.25;;;17.60;56.93
71621;BME280;59471;42.254;23.102;2023-09-30T07:22:19;96328.88;;;17.87;56.65
71621;BME280;59471;42.254;23.102;2023-09-30T07:24:45;96336.53;;;18.08;56.14
71621;BME280;59471;42.254;23.102;2023-09-30T07:27:10;96339.50;;;18.18;55.49
71621;BME280;59471;42.254;23.102;2023-09-30T07:29:35;96332.41;;;18.12;54.82
71621;BME280;59471;42.254;23.102;2023-09-30T07:32:01;96333.41;;;18.18;54.79
71621;BME280;59471;42.254;23.102;2023-09-30T07:34:26;96338.13;;;18.09;55.00
71621;BME280;59471;42.254;23.102;2023-09-30T07:36:52;96327.47;;;18.22;54.28
71621;BME280;59471;42.254;23.102;2023-09-30T07:39:17;96329.09;;;18.55;53.92
71621;BME280;59471;42.254;23.102;2023-09-30T07:41:43;96328.03;;;18.56;52.86
71621;BME280;59471;42.254;23.102;2023-09-30T07:44:08;96323.34;;;18.58;51.65
71621;BME280;59471;42.254;23.102;2023-09-30T07:46:35;96323.66;;;18.75;52.53
71621;BME280;59471;42.254;23.102;2023-09-30T07:49:00;96328.66;;;19.08;51.48
71621;BME280;59471;42.254;23.102;2023-09-30T07:51:28;96330.41;;;19.39;50.73
71621;BME280;59471;42.254;23.102;2023-09-30T07:53:55;96322.03;;;19.54;49.53
71621;BME280;59471;42.254;23.102;2023-09-30T07:56:22;96320.59;;;19.58;49.29
71621;BME280;59471;42.254;23.102;2023-09-30T07:58:48;96321.41;;;19.77;48.24
71621;BME280;59471;42.254;23.102;2023-09-30T08:01:14;96312.03;;;19.75;49.46
71621;BME280;59471;42.254;23.102;2023-09-30T08:03:40;96320.13;;;19.98;49.65
71621;BME280;59471;42.254;23.102;2023-09-30T08:06:07;96314.75;;;20.17;48.66
71621;BME280;59471;42.254;23.102;2023-09-30T08:08:36;96317.41;;;20.47;46.63
71621;BME280;59471;42.254;23.102;2023-09-30T08:11:01;96314.38;;;20.43;46.65
71621;BME280;59471;42.254;23.102;2023-09-30T08:13:27;96311.09;;;20.59;45.96
71621;BME280;59471;42.254;23.102;2023-09-30T08:15:54;96305.78;;;20.83;45.24
71621;BME280;59471;42.254;23.102;2023-09-30T08:18:21;96304.16;;;20.82;44.85
71621;BME280;59471;42.254;23.102;2023-09-30T08:20:46;96302.09;;;20.84;45.41
71621;BME280;59471;42.254;23.102;2023-09-30T08:23:12;96298.38;;;21.09;44.59
71621;BME280;59471;42.254;23.102;2023-09-30T08:25:38;96293.84;;;21.33;44.43
71621;BME280;59471;42.254;23.102;2023-09-30T08:28:04;96295.31;;;21.64;43.33
71621;BME280;59471;42.254;23.102;2023-09-30T08:30:30;96294.38;;;21.70;43.30
71621;BME280;59471;42.254;23.102;2023-09-30T08:32:56;96293.19;;;21.78;43.35
71621;BME280;59471;42.254;23.102;2023-09-30T08:35:21;96282.97;;;21.86;43.75
71621;BME280;59471;42.254;23.102;2023-09-30T08:37:47;96281.38;;;22.02;44.23
71621;BME280;59471;42.254;23.102;2023-09-30T08:40:12;96294.09;;;22.40;41.63
71621;BME280;59471;42.254;23.102;2023-09-30T08:42:39;96275.72;;;22.27;40.10
71621;BME280;59471;42.254;23.102;2023-09-30T08:45:05;96268.72;;;22.09;41.75
71621;BME280;59471;42.254;23.102;2023-09-30T08:47:34;96279.72;;;22.41;41.08
71621;BME280;59471;42.254;23.102;2023-09-30T08:50:00;96275.91;;;22.71;39.42
71621;BME280;59471;42.254;23.102;2023-09-30T08:52:35;96266.44;;;22.80;36.69
71621;BME280;59471;42.254;23.102;2023-09-30T08:55:01;96267.56;;;22.84;34.28
71621;BME280;59471;42.254;23.102;2023-09-30T08:57:27;96264.34;;;22.99;34.05
71621;BME280;59471;42.254;23.102;2023-09-30T08:59:53;96266.13;;;22.94;36.07
71621;BME280;59471;42.254;23.102;2023-09-30T09:02:19;96270.94;;;23.13;34.57
71621;BME280;59471;42.254;23.102;2023-09-30T09:04:47;96258.47;;;23.19;35.35
71621;BME280;59471;42.254;23.102;2023-09-30T09:07:14;96255.44;;;23.32;34.81
71621;BME280;59471;42.254;23.102;2023-09-30T09:09:40;96247.56;;;23.43;34.62
71621;BME280;59471;42.254;23.102;2023-09-30T09:12:06;96257.69;;;23.41;35.07
71621;BME280;59471;42.254;23.102;2023-09-30T09:14:44;96253.03;;;23.53;34.85
71621;BME280;59471;42.254;23.102;2023-09-30T09:17:10;96252.16;;;23.69;33.94
71621;BME280;59471;42.254;23.102;2023-09-30T09:19:36;96253.28;;;23.73;33.71
71621;BME280;59471;42.254;23.102;2023-09-30T09:22:03;96260.25;;;23.74;33.62
71621;BME280;59471;42.254;23.102;2023-09-30T09:24:36;96242.72;;;23.84;33.24
71621;BME280;59471;42.254;23.102;2023-09-30T09:27:09;96248.66;;;23.91;32.66
71621;BME280;59471;42.254;23.102;2023-09-30T09:29:37;96248.25;;;24.04;32.46
71621;BME280;59471;42.254;23.102;2023-09-30T09:34:41;96239.28;;;24.15;32.00
71621;BME280;59471;42.254;23.102;2023-09-30T09:39:53;96235.63;;;24.26;31.51
71621;BME280;59471;42.254;23.102;2023-09-30T09:42:31;96234.00;;;24.25;30.38
71621;BME280;59471;42.254;23.102;2023-09-30T09:45:01;96237.25;;;24.27;29.85
71621;BME280;59471;42.254;23.102;2023-09-30T09:47:29;96228.88;;;24.19;30.43
71621;BME280;59471;42.254;23.102;2023-09-30T09:49:57;96221.28;;;24.38;31.22
71621;BME280;59471;42.254;23.102;2023-09-30T09:52:23;96226.22;;;24.51;30.32
71621;BME280;59471;42.254;23.102;2023-09-30T09:54:50;96221.88;;;24.45;29.96
71621;BME280;59471;42.254;23.102;2023-09-30T09:57:19;96221.19;;;24.60;30.92
71621;BME280;59471;42.254;23.102;2023-09-30T09:59:46;96224.69;;;24.60;30.87
71621;BME280;59471;42.254;23.102;2023-09-30T10:02:16;96217.63;;;24.49;29.83
71621;BME280;59471;42.254;23.102;2023-09-30T10:04:47;96212.25;;;24.44;29.48
71621;BME280;59471;42.254;23.102;2023-09-30T10:07:20;96208.38;;;24.67;29.95
71621;BME280;59471;42.254;23.102;2023-09-30T10:09:49;96199.38;;;24.78;30.76
71621;BME280;59471;42.254;23.102;2023-09-30T10:12:18;96204.81;;;24.98;29.43
71621;BME280;59471;42.254;23.102;2023-09-30T10:14:47;96207.25;;;25.00;29.67
71621;BME280;59471;42.254;23.102;2023-09-30T10:17:13;96204.72;;;24.83;28.36
71621;BME280;59471;42.254;23.102;2023-09-30T10:20:06;96198.09;;;24.91;29.81
71621;BME280;59471;42.254;23.102;2023-09-30T10:22:33;96197.03;;;24.92;28.42
71621;BME280;59471;42.254;23.102;2023-09-30T10:24:59;96196.03;;;25.03;28.86
71621;BME280;59471;42.254;23.102;2023-09-30T10:35:20;96191.06;;;25.27;28.85
71621;BME280;59471;42.254;23.102;2023-09-30T10:37:47;96196.66;;;25.20;27.70
71621;BME280;59471;42.254;23.102;2023-09-30T10:40:27;96190.50;;;25.25;29.67
71621;BME280;59471;42.254;23.102;2023-09-30T10:42:53;96182.69;;;25.18;28.37
71621;BME280;59471;42.254;23.102;2023-09-30T10:45:51;96179.50;;;25.16;27.95
71621;BME280;59471;42.254;23.102;2023-09-30T10:51:11;96184.91;;;25.37;26.72
71621;BME280;59471;42.254;23.102;2023-09-30T10:53:45;96182.25;;;25.32;27.13
71621;BME280;59471;42.254;23.102;2023-09-30T10:56:17;96168.34;;;25.50;27.31
71621;BME280;59471;42.254;23.102;2023-09-30T10:58:48;96170.28;;;25.75;26.80
71621;BME280;59471;42.254;23.102;2023-09-30T11:01:15;96161.13;;;25.66;27.10
71621;BME280;59471;42.254;23.102;2023-09-30T11:03:43;96164.09;;;25.64;25.75
71621;BME280;59471;42.254;23.102;2023-09-30T11:06:13;96159.28;;;25.72;27.64
71621;BME280;59471;42.254;23.102;2023-09-30T11:08:46;96161.44;;;25.80;26.20
71621;BME280;59471;42.254;23.102;2023-09-30T11:11:15;96163.06;;;25.81;26.68
71621;BME280;59471;42.254;23.102;2023-09-30T11:13:41;96153.41;;;25.85;27.12
71621;BME280;59471;42.254;23.102;2023-09-30T11:16:07;96160.41;;;25.91;26.27
71621;BME280;59471;42.254;23.102;2023-09-30T11:18:34;96156.59;;;25.72;26.98
71621;BME280;59471;42.254;23.102;2023-09-30T11:23:30;96152.84;;;25.78;27.07
71621;BME280;59471;42.254;23.102;2023-09-30T11:25:56;96145.88;;;25.77;27.88
71621;BME280;59471;42.254;23.102;2023-09-30T11:28:22;96144.22;;;25.65;27.24
71621;BME280;59471;42.254;23.102;2023-09-30T11:30:55;96151.50;;;25.70;27.47
71621;BME280;59471;42.254;23.102;2023-09-30T11:33:25;96145.88;;;25.66;27.46
71621;BME280;59471;42.254;23.102;2023-09-30T11:36:01;96137.84;;;25.82;27.01
71621;BME280;59471;42.254;23.102;2023-09-30T11:38:29;96140.56;;;26.07;27.81
71621;BME280;59471;42.254;23.102;2023-09-30T11:41:05;96140.53;;;25.97;27.51
71621;BME280;59471;42.254;23.102;2023-09-30T11:43:35;96121.78;;;26.02;28.04
71621;BME280;59471;42.254;23.102;2023-09-30T11:46:10;96130.34;;;26.20;26.38
71621;BME280;59471;42.254;23.102;2023-09-30T11:51:23;96121.25;;;26.10;26.91
71621;BME280;59471;42.254;23.102;2023-09-30T11:53:50;96122.28;;;26.20;27.14
71621;BME280;59471;42.254;23.102;2023-09-30T11:56:16;96114.78;;;26.11;27.11
71621;BME280;59471;42.254;23.102;2023-09-30T11:58:41;96111.28;;;26.16;27.34
71621;BME280;59471;42.254;23.102;2023-09-30T12:01:07;96106.19;;;26.09;27.46
71621;BME280;59471;42.254;23.102;2023-09-30T12:03:32;96107.25;;;26.19;27.31
71621;BME280;59471;42.254;23.102;2023-09-30T12:06:04;96109.97;;;26.08;28.13
71621;BME280;59471;42.254;23.102;2023-09-30T12:08:30;96104.06;;;26.11;27.69
71621;BME280;59471;42.254;23.102;2023-09-30T12:10:56;96106.19;;;26.09;28.23
71621;BME280;59471;42.254;23.102;2023-09-30T12:13:21;96100.00;;;26.19;26.40
71621;BME280;59471;42.254;23.102;2023-09-30T12:15:47;96096.47;;;26.44;27.68
71621;BME280;59471;42.254;23.102;2023-09-30T12:18:12;96102.94;;;26.58;27.73
71621;BME280;59471;42.254;23.102;2023-09-30T12:20:42;96083.34;;;26.43;27.24
71621;BME280;59471;42.254;23.102;2023-09-30T12:23:09;96091.41;;;26.58;27.47
71621;BME280;59471;42.254;23.102;2023-09-30T12:25:35;96094.91;;;26.48;27.95
71621;BME280;59471;42.254;23.102;2023-09-30T12:28:02;96091.09;;;26.65;27.82
71621;BME280;59471;42.254;23.102;2023-09-30T12:30:28;96084.09;;;26.74;27.25
71621;BME280;59471;42.254;23.102;2023-09-30T12:32:57;96099.13;;;26.70;27.72
71621;BME280;59471;42.254;23.102;2023-09-30T12:35:23;96089.53;;;26.33;27.26
71621;BME280;59471;42.254;23.102;2023-09-30T12:37:49;96086.81;;;26.38;27.32
71621;BME280;59471;42.254;23.102;2023-09-30T12:40:14;96087.91;;;26.42;27.46
71621;BME280;59471;42.254;23.102;2023-09-30T12:42:43;96080.38;;;26.54;29.35
71621;BME280;59471;42.254;23.102;2023-09-30T12:45:10;96077.88;;;26.73;27.06
71621;BME280;59471;42.254;23.102;2023-09-30T12:47:36;96077.69;;;26.60;27.15
71621;BME280;59471;42.254;23.102;2023-09-30T12:50:02;96065.84;;;26.66;27.24
71621;BME280;59471;42.254;23.102;2023-09-30T12:52:28;96074.09;;;26.85;26.67
71621;BME280;59471;42.254;23.102;2023-09-30T12:54:55;96070.06;;;26.87;27.08
71621;BME280;59471;42.254;23.102;2023-09-30T12:57:21;96070.63;;;26.79;26.39
71621;BME280;59471;42.254;23.102;2023-09-30T12:59:47;96059.97;;;26.38;26.78
71621;BME280;59471;42.254;23.102;2023-09-30T13:02:14;96069.16;;;26.27;26.93
71621;BME280;59471;42.254;23.102;2023-09-30T13:04:40;96066.97;;;26.39;27.20
71621;BME280;59471;42.254;23.102;2023-09-30T13:07:11;96062.41;;;26.40;26.66
71621;BME280;59471;42.254;23.102;2023-09-30T13:09:40;96060.25;;;26.52;27.64
71621;BME280;59471;42.254;23.102;2023-09-30T13:12:07;96049.72;;;26.61;26.47